sensor_id;sensor_type;location;lat;lon;timestamp;P1;durP1;ratioP1;P2;durP2;ratioP2
23230;SDS011;11784;49.818;8.632;2022-11-20T00:00:26;7.47;;;3.72;;
23230;SDS011;11784;49.818;8.632;2022-11-20T00:02:51;8.05;;;3.25;;
23230;SDS011;11784;49.818;8.632;2022-11-20T00:05:17;11.50;;;4.47;;
23230;SDS011;11784;49.818;8.632;2022-11-20T00:07:43;9.10;;;3.70;;
23230;SDS011;11784;49.818;8.632;2022-11-20T00:10:08;6.50;;;3.42;;
23230;SDS011;11784;49.818;8.632;2022-11-20T00:12:34;6.25;;;3.35;;
23230;SDS011;11784;49.818;8.632;2022-11-20T00:15:00;5.40;;;3.17;;
23230;SDS011;11784;49.818;8.632;2022-11-20T00:17:25;5.93;;;3.03;;
23230;SDS011;11784;49.818;8.632;2022-11-20T00:19:51;8.25;;;3.30;;
23230;SDS011;11784;49.818;8.632;2022-11-20T00:22:16;7.18;;;3.65;;
23230;SDS011;11784;49.818;8.632;2022-11-20T00:24:42;7.55;;;3.72;;
23230;SDS011;11784;49.818;8.632;2022-11-20T00:27:07;4.95;;;2.65;;
23230;SDS011;11784;49.818;8.632;2022-11-20T00:29:33;6.82;;;3.90;;
23230;SDS011;11784;49.818;8.632;2022-11-20T00:31:58;6.00;;;3.50;;
23230;SDS011;11784;49.818;8.632;2022-11-20T00:34:24;7.82;;;3.78;;
23230;SDS011;11784;49.818;8.632;2022-11-20T00:36:49;7.35;;;4.10;;
23230;SDS011;11784;49.818;8.632;2022-11-20T00:39:15;5.05;;;3.15;;
23230;SDS011;11784;49.818;8.632;2022-11-20T00:41:40;7.57;;;2.95;;
23230;SDS011;11784;49.818;8.632;2022-11-20T00:44:06;7.47;;;3.88;;
23230;SDS011;11784;49.818;8.632;2022-11-20T00:46:31;5.93;;;3.25;;
23230;SDS011;11784;49.818;8.632;2022-11-20T00:48:57;5.40;;;3.42;;
23230;SDS011;11784;49.818;8.632;2022-11-20T00:51:23;8.88;;;4.05;;
23230;SDS011;11784;49.818;8.632;2022-11-20T00:53:50;7.93;;;2.67;;
23230;SDS011;11784;49.818;8.632;2022-11-20T00:56:17;8.18;;;3.85;;
23230;SDS011;11784;49.818;8.632;2022-11-20T00:58:44;7.00;;;3.00;;
23230;SDS011;11784;49.818;8.632;2022-11-20T01:01:15;6.90;;;3.60;;
23230;SDS011;11784;49.818;8.632;2022-11-20T01:03:43;4.82;;;2.55;;
23230;SDS011;11784;49.818;8.632;2022-11-20T01:08:43;4.10;;;2.33;;
23230;SDS011;11784;49.818;8.632;2022-11-20T01:11:11;8.85;;;3.72;;
23230;SDS011;11784;49.818;8.632;2022-11-20T01:13:39;5.53;;;3.58;;
23230;SDS011;11784;49.818;8.632;2022-11-20T01:18:37;5.57;;;2.72;;
23230;SDS011;11784;49.818;8.632;2022-11-20T01:21:05;7.13;;;3.78;;
23230;SDS011;11784;49.818;8.632;2022-11-20T01:23:37;6.60;;;3.17;;
23230;SDS011;11784;49.818;8.632;2022-11-20T01:26:04;5.00;;;2.50;;
23230;SDS011;11784;49.818;8.632;2022-11-20T01:28:31;7.10;;;3.20;;
23230;SDS011;11784;49.818;8.632;2022-11-20T01:30:57;7.60;;;3.33;;
23230;SDS011;11784;49.818;8.632;2022-11-20T01:33:24;7.10;;;3.38;;
23230;SDS011;11784;49.818;8.632;2022-11-20T01:35:49;5.78;;;3.58;;
23230;SDS011;11784;49.818;8.632;2022-11-20T01:38:16;6.78;;;3.90;;
23230;SDS011;11784;49.818;8.632;2022-11-20T01:40:41;6.13;;;2.80;;
23230;SDS011;11784;49.818;8.632;2022-11-20T01:43:14;7.60;;;3.28;;
23230;SDS011;11784;49.818;8.632;2022-11-20T01:48:18;5.60;;;2.33;;
23230;SDS011;11784;49.818;8.632;2022-11-20T01:50:47;5.03;;;2.60;;
23230;SDS011;11784;49.818;8.632;2022-11-20T01:53:15;7.57;;;2.78;;
23230;SDS011;11784;49.818;8.632;2022-11-20T01:55:45;5.75;;;3.30;;
23230;SDS011;11784;49.818;8.632;2022-11-20T01:58:14;7.05;;;3.80;;
23230;SDS011;11784;49.818;8.632;2022-11-20T02:00:41;6.30;;;2.85;;
23230;SDS011;11784;49.818;8.632;2022-11-20T02:03:09;8.15;;;3.20;;
23230;SDS011;11784;49.818;8.632;2022-11-20T02:08:26;5.15;;;2.85;;
23230;SDS011;11784;49.818;8.632;2022-11-20T02:10:53;4.75;;;2.50;;
23230;SDS011;11784;49.818;8.632;2022-11-20T02:13:18;6.65;;;3.33;;
23230;SDS011;11784;49.818;8.632;2022-11-20T02:16:03;7.15;;;2.95;;
23230;SDS011;11784;49.818;8.632;2022-11-20T02:18:30;6.60;;;2.67;;
23230;SDS011;11784;49.818;8.632;2022-11-20T02:20:58;6.40;;;2.72;;
23230;SDS011;11784;49.818;8.632;2022-11-20T02:23:33;4.55;;;2.60;;
23230;SDS011;11784;49.818;8.632;2022-11-20T02:26:09;6.07;;;2.85;;
23230;SDS011;11784;49.818;8.632;2022-11-20T02:28:37;4.90;;;2.65;;
23230;SDS011;11784;49.818;8.632;2022-11-20T02:31:02;6.28;;;3.00;;
23230;SDS011;11784;49.818;8.632;2022-11-20T02:33:28;6.13;;;3.22;;
23230;SDS011;11784;49.818;8.632;2022-11-20T02:35:53;4.63;;;2.90;;
23230;SDS011;11784;49.818;8.632;2022-11-20T02:38:19;7.50;;;3.17;;
23230;SDS011;11784;49.818;8.632;2022-11-20T02:40:45;9.13;;;4.20;;
23230;SDS011;11784;49.818;8.632;2022-11-20T02:43:11;5.22;;;2.78;;
23230;SDS011;11784;49.818;8.632;2022-11-20T02:45:36;8.32;;;3.25;;
23230;SDS011;11784;49.818;8.632;2022-11-20T02:48:02;9.07;;;3.92;;
23230;SDS011;11784;49.818;8.632;2022-11-20T02:50:28;6.80;;;2.92;;
23230;SDS011;11784;49.818;8.632;2022-11-20T02:52:54;13.07;;;3.85;;
23230;SDS011;11784;49.818;8.632;2022-11-20T02:55:19;10.30;;;3.53;;
23230;SDS011;11784;49.818;8.632;2022-11-20T02:57:45;6.55;;;3.85;;
23230;SDS011;11784;49.818;8.632;2022-11-20T03:00:10;7.05;;;2.88;;
23230;SDS011;11784;49.818;8.632;2022-11-20T03:02:36;6.32;;;3.28;;
23230;SDS011;11784;49.818;8.632;2022-11-20T03:05:02;11.38;;;4.32;;
23230;SDS011;11784;49.818;8.632;2022-11-20T03:07:27;5.90;;;3.70;;
23230;SDS011;11784;49.818;8.632;2022-11-20T03:09:53;7.22;;;4.18;;
23230;SDS011;11784;49.818;8.632;2022-11-20T03:12:18;9.20;;;3.35;;
23230;SDS011;11784;49.818;8.632;2022-11-20T03:14:44;8.40;;;4.07;;
23230;SDS011;11784;49.818;8.632;2022-11-20T03:17:09;10.23;;;3.65;;
23230;SDS011;11784;49.818;8.632;2022-11-20T03:19:35;10.88;;;4.80;;
23230;SDS011;11784;49.818;8.632;2022-11-20T03:22:00;10.50;;;4.22;;
23230;SDS011;11784;49.818;8.632;2022-11-20T03:24:26;8.15;;;3.80;;
23230;SDS011;11784;49.818;8.632;2022-11-20T03:26:52;9.95;;;4.78;;
23230;SDS011;11784;49.818;8.632;2022-11-20T03:29:17;10.40;;;4.72;;
23230;SDS011;11784;49.818;8.632;2022-11-20T03:31:43;7.75;;;3.78;;
23230;SDS011;11784;49.818;8.632;2022-11-20T03:34:09;7.07;;;3.88;;
23230;SDS011;11784;49.818;8.632;2022-11-20T03:36:40;11.38;;;3.97;;
23230;SDS011;11784;49.818;8.632;2022-11-20T03:39:06;7.07;;;4.00;;
23230;SDS011;11784;49.818;8.632;2022-11-20T03:41:35;10.73;;;4.60;;
23230;SDS011;11784;49.818;8.632;2022-11-20T03:44:03;11.68;;;4.80;;
23230;SDS011;11784;49.818;8.632;2022-11-20T03:46:29;11.10;;;4.72;;
23230;SDS011;11784;49.818;8.632;2022-11-20T03:48:55;9.00;;;5.03;;
23230;SDS011;11784;49.818;8.632;2022-11-20T03:51:25;11.70;;;4.72;;
23230;SDS011;11784;49.818;8.632;2022-11-20T03:53:56;10.10;;;4.55;;
23230;SDS011;11784;49.818;8.632;2022-11-20T03:56:24;6.93;;;3.67;;
23230;SDS011;11784;49.818;8.632;2022-11-20T03:59:00;7.95;;;4.22;;
23230;SDS011;11784;49.818;8.632;2022-11-20T04:01:27;13.52;;;4.85;;
23230;SDS011;11784;49.818;8.632;2022-11-20T04:06:24;9.48;;;4.07;;
23230;SDS011;11784;49.818;8.632;2022-11-20T04:08:53;6.95;;;3.85;;
23230;SDS011;11784;49.818;8.632;2022-11-20T04:11:21;10.85;;;5.05;;
23230;SDS011;11784;49.818;8.632;2022-11-20T04:13:50;11.15;;;4.13;;
23230;SDS011;11784;49.818;8.632;2022-11-20T04:16:20;9.70;;;4.00;;
23230;SDS011;11784;49.818;8.632;2022-11-20T04:18:46;11.10;;;4.75;;
23230;SDS011;11784;49.818;8.632;2022-11-20T04:21:12;10.05;;;4.45;;
23230;SDS011;11784;49.818;8.632;2022-11-20T04:23:38;9.98;;;4.20;;
23230;SDS011;11784;49.818;8.632;2022-11-20T04:26:04;13.07;;;4.78;;
23230;SDS011;11784;49.818;8.632;2022-11-20T04:28:31;7.72;;;3.97;;
23230;SDS011;11784;49.818;8.632;2022-11-20T04:33:31;9.35;;;4.55;;
23230;SDS011;11784;49.818;8.632;2022-11-20T04:36:02;8.23;;;4.03;;
23230;SDS011;11784;49.818;8.632;2022-11-20T04:38:38;6.70;;;3.80;;
23230;SDS011;11784;49.818;8.632;2022-11-20T04:41:05;9.85;;;4.45;;
23230;SDS011;11784;49.818;8.632;2022-11-20T04:43:31;8.70;;;4.30;;
23230;SDS011;11784;49.818;8.632;2022-11-20T04:45:58;12.30;;;4.72;;
23230;SDS011;11784;49.818;8.632;2022-11-20T04:48:25;10.98;;;4.10;;
23230;SDS011;11784;49.818;8.632;2022-11-20T04:50:51;8.82;;;4.00;;
23230;SDS011;11784;49.818;8.632;2022-11-20T04:53:17;8.10;;;4.35;;
23230;SDS011;11784;49.818;8.632;2022-11-20T04:55:43;10.43;;;3.95;;
23230;SDS011;11784;49.818;8.632;2022-11-20T04:58:09;12.38;;;4.30;;
23230;SDS011;11784;49.818;8.632;2022-11-20T05:00:35;9.75;;;4.53;;
23230;SDS011;11784;49.818;8.632;2022-11-20T05:03:00;11.93;;;4.57;;
23230;SDS011;11784;49.818;8.632;2022-11-20T05:05:26;11.15;;;5.18;;
23230;SDS011;11784;49.818;8.632;2022-11-20T05:07:51;10.50;;;4.93;;
23230;SDS011;11784;49.818;8.632;2022-11-20T05:10:17;8.70;;;4.32;;
23230;SDS011;11784;49.818;8.632;2022-11-20T05:12:42;11.38;;;4.50;;
23230;SDS011;11784;49.818;8.632;2022-11-20T05:15:08;9.68;;;4.72;;
23230;SDS011;11784;49.818;8.632;2022-11-20T05:17:34;14.70;;;5.88;;
23230;SDS011;11784;49.818;8.632;2022-11-20T05:19:59;12.40;;;5.07;;
23230;SDS011;11784;49.818;8.632;2022-11-20T05:22:25;7.25;;;3.63;;
23230;SDS011;11784;49.818;8.632;2022-11-20T05:24:51;11.77;;;4.85;;
23230;SDS011;11784;49.818;8.632;2022-11-20T05:27:16;13.20;;;5.72;;
23230;SDS011;11784;49.818;8.632;2022-11-20T05:29:42;12.68;;;5.22;;
23230;SDS011;11784;49.818;8.632;2022-11-20T05:32:07;12.05;;;4.88;;
23230;SDS011;11784;49.818;8.632;2022-11-20T05:34:34;10.82;;;4.47;;
23230;SDS011;11784;49.818;8.632;2022-11-20T05:37:00;11.30;;;4.05;;
23230;SDS011;11784;49.818;8.632;2022-11-20T05:39:26;10.52;;;4.72;;
23230;SDS011;11784;49.818;8.632;2022-11-20T05:41:52;14.70;;;5.18;;
23230;SDS011;11784;49.818;8.632;2022-11-20T05:44:37;11.23;;;5.22;;
23230;SDS011;11784;49.818;8.632;2022-11-20T05:47:03;11.18;;;5.55;;
23230;SDS011;11784;49.818;8.632;2022-11-20T05:49:28;10.40;;;4.72;;
23230;SDS011;11784;49.818;8.632;2022-11-20T05:51:54;10.80;;;5.32;;
23230;SDS011;11784;49.818;8.632;2022-11-20T05:54:19;11.48;;;5.68;;
23230;SDS011;11784;49.818;8.632;2022-11-20T05:56:45;12.38;;;6.57;;
23230;SDS011;11784;49.818;8.632;2022-11-20T05:59:10;9.73;;;4.88;;
23230;SDS011;11784;49.818;8.632;2022-11-20T06:01:36;9.25;;;4.35;;
23230;SDS011;11784;49.818;8.632;2022-11-20T06:04:01;11.27;;;4.72;;
23230;SDS011;11784;49.818;8.632;2022-11-20T06:06:27;16.58;;;4.93;;
23230;SDS011;11784;49.818;8.632;2022-11-20T06:08:52;14.60;;;5.80;;
23230;SDS011;11784;49.818;8.632;2022-11-20T06:11:19;10.60;;;5.47;;
23230;SDS011;11784;49.818;8.632;2022-11-20T06:13:45;8.70;;;4.90;;
23230;SDS011;11784;49.818;8.632;2022-11-20T06:16:12;12.02;;;5.43;;
23230;SDS011;11784;49.818;8.632;2022-11-20T06:18:39;13.52;;;4.80;;
23230;SDS011;11784;49.818;8.632;2022-11-20T06:21:06;13.32;;;5.30;;
23230;SDS011;11784;49.818;8.632;2022-11-20T06:23:37;12.00;;;4.90;;
23230;SDS011;11784;49.818;8.632;2022-11-20T06:26:03;11.15;;;4.35;;
23230;SDS011;11784;49.818;8.632;2022-11-20T06:28:30;10.35;;;4.38;;
23230;SDS011;11784;49.818;8.632;2022-11-20T06:30:56;10.05;;;4.32;;
23230;SDS011;11784;49.818;8.632;2022-11-20T06:33:22;12.75;;;3.42;;
23230;SDS011;11784;49.818;8.632;2022-11-20T06:35:48;11.00;;;4.68;;
23230;SDS011;11784;49.818;8.632;2022-11-20T06:38:13;8.05;;;3.45;;
23230;SDS011;11784;49.818;8.632;2022-11-20T06:40:39;10.70;;;4.32;;
23230;SDS011;11784;49.818;8.632;2022-11-20T06:43:05;8.07;;;4.70;;
23230;SDS011;11784;49.818;8.632;2022-11-20T06:45:31;8.50;;;3.60;;
23230;SDS011;11784;49.818;8.632;2022-11-20T06:47:57;10.30;;;4.75;;
23230;SDS011;11784;49.818;8.632;2022-11-20T06:50:23;9.48;;;4.10;;
23230;SDS011;11784;49.818;8.632;2022-11-20T06:52:48;8.98;;;4.28;;
23230;SDS011;11784;49.818;8.632;2022-11-20T06:55:14;7.07;;;3.47;;
23230;SDS011;11784;49.818;8.632;2022-11-20T06:57:40;9.73;;;3.85;;
23230;SDS011;11784;49.818;8.632;2022-11-20T07:00:05;8.90;;;3.70;;
23230;SDS011;11784;49.818;8.632;2022-11-20T07:02:31;9.43;;;4.00;;
23230;SDS011;11784;49.818;8.632;2022-11-20T07:04:57;5.50;;;3.00;;
23230;SDS011;11784;49.818;8.632;2022-11-20T07:07:22;7.57;;;4.07;;
23230;SDS011;11784;49.818;8.632;2022-11-20T07:09:48;9.90;;;4.90;;
23230;SDS011;11784;49.818;8.632;2022-11-20T07:12:13;9.90;;;3.83;;
23230;SDS011;11784;49.818;8.632;2022-11-20T07:14:39;9.70;;;4.80;;
23230;SDS011;11784;49.818;8.632;2022-11-20T07:17:04;10.32;;;4.20;;
23230;SDS011;11784;49.818;8.632;2022-11-20T07:19:30;7.35;;;3.28;;
23230;SDS011;11784;49.818;8.632;2022-11-20T07:21:55;8.73;;;3.55;;
23230;SDS011;11784;49.818;8.632;2022-11-20T07:24:21;10.40;;;4.30;;
23230;SDS011;11784;49.818;8.632;2022-11-20T07:26:46;6.70;;;3.75;;
23230;SDS011;11784;49.818;8.632;2022-11-20T07:29:14;9.40;;;4.07;;
23230;SDS011;11784;49.818;8.632;2022-11-20T07:31:40;6.57;;;3.70;;
23230;SDS011;11784;49.818;8.632;2022-11-20T07:34:06;7.57;;;3.75;;
23230;SDS011;11784;49.818;8.632;2022-11-20T07:36:32;8.60;;;3.92;;
23230;SDS011;11784;49.818;8.632;2022-11-20T07:38:57;8.27;;;3.60;;
23230;SDS011;11784;49.818;8.632;2022-11-20T07:41:23;8.90;;;4.72;;
23230;SDS011;11784;49.818;8.632;2022-11-20T07:43:48;6.20;;;3.35;;
23230;SDS011;11784;49.818;8.632;2022-11-20T07:46:14;10.10;;;4.20;;
23230;SDS011;11784;49.818;8.632;2022-11-20T07:48:39;11.05;;;5.00;;
23230;SDS011;11784;49.818;8.632;2022-11-20T07:51:05;9.70;;;4.13;;
23230;SDS011;11784;49.818;8.632;2022-11-20T07:53:30;7.93;;;2.97;;
23230;SDS011;11784;49.818;8.632;2022-11-20T07:55:59;6.53;;;2.83;;
23230;SDS011;11784;49.818;8.632;2022-11-20T07:58:25;9.85;;;4.18;;
23230;SDS011;11784;49.818;8.632;2022-11-20T08:00:51;9.30;;;3.63;;
23230;SDS011;11784;49.818;8.632;2022-11-20T08:03:16;7.53;;;3.80;;
23230;SDS011;11784;49.818;8.632;2022-11-20T08:05:42;7.97;;;3.70;;
23230;SDS011;11784;49.818;8.632;2022-11-20T08:08:07;8.35;;;4.00;;
23230;SDS011;11784;49.818;8.632;2022-11-20T08:10:33;9.43;;;3.85;;
23230;SDS011;11784;49.818;8.632;2022-11-20T08:12:58;8.32;;;2.92;;
23230;SDS011;11784;49.818;8.632;2022-11-20T08:15:47;5.72;;;3.42;;
23230;SDS011;11784;49.818;8.632;2022-11-20T08:18:13;6.60;;;2.67;;
23230;SDS011;11784;49.818;8.632;2022-11-20T08:20:39;5.20;;;2.42;;
23230;SDS011;11784;49.818;8.632;2022-11-20T08:23:05;6.90;;;3.38;;
23230;SDS011;11784;49.818;8.632;2022-11-20T08:25:32;7.88;;;2.90;;
23230;SDS011;11784;49.818;8.632;2022-11-20T08:28:07;10.65;;;3.42;;
23230;SDS011;11784;49.818;8.632;2022-11-20T08:30:34;7.10;;;2.83;;
23230;SDS011;11784;49.818;8.632;2022-11-20T08:33:01;8.15;;;3.42;;
23230;SDS011;11784;49.818;8.632;2022-11-20T08:35:37;2.53;;;1.77;;
23230;SDS011;11784;49.818;8.632;2022-11-20T08:38:06;9.63;;;4.05;;
23230;SDS011;11784;49.818;8.632;2022-11-20T08:40:32;4.85;;;2.95;;
23230;SDS011;11784;49.818;8.632;2022-11-20T08:42:58;5.63;;;3.58;;
23230;SDS011;11784;49.818;8.632;2022-11-20T08:45:23;7.97;;;3.20;;
23230;SDS011;11784;49.818;8.632;2022-11-20T08:47:49;5.68;;;3.03;;
23230;SDS011;11784;49.818;8.632;2022-11-20T08:50:15;7.97;;;3.20;;
23230;SDS011;11784;49.818;8.632;2022-11-20T08:52:41;4.90;;;2.75;;
23230;SDS011;11784;49.818;8.632;2022-11-20T08:55:08;7.75;;;3.28;;
23230;SDS011;11784;49.818;8.632;2022-11-20T08:57:35;6.65;;;3.03;;
23230;SDS011;11784;49.818;8.632;2022-11-20T09:00:01;7.28;;;2.60;;
23230;SDS011;11784;49.818;8.632;2022-11-20T09:02:28;10.48;;;4.32;;
23230;SDS011;11784;49.818;8.632;2022-11-20T09:04:54;7.85;;;3.72;;
23230;SDS011;11784;49.818;8.632;2022-11-20T09:07:19;9.80;;;3.70;;
23230;SDS011;11784;49.818;8.632;2022-11-20T09:09:45;10.45;;;4.30;;
23230;SDS011;11784;49.818;8.632;2022-11-20T09:12:11;10.50;;;3.78;;
23230;SDS011;11784;49.818;8.632;2022-11-20T09:14:36;11.77;;;4.75;;
23230;SDS011;11784;49.818;8.632;2022-11-20T09:17:02;7.40;;;4.05;;
23230;SDS011;11784;49.818;8.632;2022-11-20T09:19:27;10.07;;;4.78;;
23230;SDS011;11784;49.818;8.632;2022-11-20T09:21:53;5.53;;;3.22;;
23230;SDS011;11784;49.818;8.632;2022-11-20T09:24:18;11.98;;;3.45;;
23230;SDS011;11784;49.818;8.632;2022-11-20T09:26:45;7.00;;;3.40;;
23230;SDS011;11784;49.818;8.632;2022-11-20T09:29:11;10.88;;;4.13;;
23230;SDS011;11784;49.818;8.632;2022-11-20T09:31:36;9.93;;;4.93;;
23230;SDS011;11784;49.818;8.632;2022-11-20T09:34:02;13.40;;;5.38;;
23230;SDS011;11784;49.818;8.632;2022-11-20T09:36:27;9.55;;;4.97;;
23230;SDS011;11784;49.818;8.632;2022-11-20T09:38:53;9.13;;;4.55;;
23230;SDS011;11784;49.818;8.632;2022-11-20T09:47:48;8.18;;;3.60;;
23230;SDS011;11784;49.818;8.632;2022-11-20T09:50:30;10.05;;;3.55;;
23230;SDS011;11784;49.818;8.632;2022-11-20T09:53:16;8.35;;;4.38;;
23230;SDS011;11784;49.818;8.632;2022-11-20T09:55:48;8.52;;;3.78;;
23230;SDS011;11784;49.818;8.632;2022-11-20T09:58:24;10.75;;;3.67;;
23230;SDS011;11784;49.818;8.632;2022-11-20T10:01:00;7.85;;;3.65;;
23230;SDS011;11784;49.818;8.632;2022-11-20T10:06:15;8.00;;;3.97;;
23230;SDS011;11784;49.818;8.632;2022-11-20T10:11:46;4.45;;;3.03;;
23230;SDS011;11784;49.818;8.632;2022-11-20T10:14:28;5.32;;;2.95;;
23230;SDS011;11784;49.818;8.632;2022-11-20T10:22:51;9.13;;;3.38;;
23230;SDS011;11784;49.818;8.632;2022-11-20T10:25:19;8.60;;;4.65;;
23230;SDS011;11784;49.818;8.632;2022-11-20T10:31:10;6.63;;;3.42;;
23230;SDS011;11784;49.818;8.632;2022-11-20T10:33:40;7.03;;;3.85;;
23230;SDS011;11784;49.818;8.632;2022-11-20T10:36:10;9.00;;;3.97;;
23230;SDS011;11784;49.818;8.632;2022-11-20T10:38:54;5.78;;;3.55;;
23230;SDS011;11784;49.818;8.632;2022-11-20T10:41:42;9.20;;;4.25;;
23230;SDS011;11784;49.818;8.632;2022-11-20T10:44:16;12.80;;;4.38;;
23230;SDS011;11784;49.818;8.632;2022-11-20T10:47:04;11.50;;;4.72;;
23230;SDS011;11784;49.818;8.632;2022-11-20T10:49:35;6.53;;;4.35;;
23230;SDS011;11784;49.818;8.632;2022-11-20T10:58:00;7.05;;;3.63;;
23230;SDS011;11784;49.818;8.632;2022-11-20T11:00:46;8.38;;;3.88;;
23230;SDS011;11784;49.818;8.632;2022-11-20T11:03:31;6.70;;;3.22;;
23230;SDS011;11784;49.818;8.632;2022-11-20T11:06:06;8.85;;;3.67;;
23230;SDS011;11784;49.818;8.632;2022-11-20T11:08:38;10.32;;;5.03;;
23230;SDS011;11784;49.818;8.632;2022-11-20T11:11:13;10.80;;;4.60;;
23230;SDS011;11784;49.818;8.632;2022-11-20T11:13:47;9.80;;;4.50;;
23230;SDS011;11784;49.818;8.632;2022-11-20T11:16:19;9.23;;;4.60;;
23230;SDS011;11784;49.818;8.632;2022-11-20T11:18:50;10.15;;;4.57;;
23230;SDS011;11784;49.818;8.632;2022-11-20T11:21:21;9.43;;;3.85;;
23230;SDS011;11784;49.818;8.632;2022-11-20T11:24:00;9.18;;;3.65;;
23230;SDS011;11784;49.818;8.632;2022-11-20T11:26:30;11.13;;;5.05;;
23230;SDS011;11784;49.818;8.632;2022-11-20T11:28:59;9.43;;;4.22;;
23230;SDS011;11784;49.818;8.632;2022-11-20T11:31:26;8.25;;;3.92;;
23230;SDS011;11784;49.818;8.632;2022-11-20T11:34:15;7.10;;;3.85;;
23230;SDS011;11784;49.818;8.632;2022-11-20T11:36:40;6.60;;;3.80;;
23230;SDS011;11784;49.818;8.632;2022-11-20T11:39:14;8.85;;;3.97;;
23230;SDS011;11784;49.818;8.632;2022-11-20T11:41:42;10.65;;;4.10;;
23230;SDS011;11784;49.818;8.632;2022-11-20T11:47:46;7.50;;;3.85;;
23230;SDS011;11784;49.818;8.632;2022-11-20T11:50:14;9.32;;;3.90;;
23230;SDS011;11784;49.818;8.632;2022-11-20T11:52:46;11.60;;;4.80;;
23230;SDS011;11784;49.818;8.632;2022-11-20T11:58:34;8.00;;;3.55;;
23230;SDS011;11784;49.818;8.632;2022-11-20T12:04:50;10.43;;;4.90;;
23230;SDS011;11784;49.818;8.632;2022-11-20T12:07:35;11.73;;;4.28;;
23230;SDS011;11784;49.818;8.632;2022-11-20T12:10:08;8.70;;;4.03;;
23230;SDS011;11784;49.818;8.632;2022-11-20T12:12:43;9.60;;;3.30;;
23230;SDS011;11784;49.818;8.632;2022-11-20T12:15:21;7.57;;;4.22;;
23230;SDS011;11784;49.818;8.632;2022-11-20T12:17:54;8.57;;;4.20;;
23230;SDS011;11784;49.818;8.632;2022-11-20T12:20:19;11.35;;;4.50;;
23230;SDS011;11784;49.818;8.632;2022-11-20T12:23:02;9.15;;;5.03;;
23230;SDS011;11784;49.818;8.632;2022-11-20T12:25:33;7.22;;;3.78;;
23230;SDS011;11784;49.818;8.632;2022-11-20T12:28:04;10.23;;;4.18;;
23230;SDS011;11784;49.818;8.632;2022-11-20T12:31:02;9.40;;;3.60;;
23230;SDS011;11784;49.818;8.632;2022-11-20T12:39:00;11.57;;;4.20;;
23230;SDS011;11784;49.818;8.632;2022-11-20T12:47:46;7.45;;;3.47;;
23230;SDS011;11784;49.818;8.632;2022-11-20T12:53:16;7.72;;;4.13;;
23230;SDS011;11784;49.818;8.632;2022-11-20T12:56:37;6.75;;;3.58;;
23230;SDS011;11784;49.818;8.632;2022-11-20T12:59:02;9.43;;;3.95;;
23230;SDS011;11784;49.818;8.632;2022-11-20T13:01:50;14.50;;;4.13;;
23230;SDS011;11784;49.818;8.632;2022-11-20T13:04:54;7.75;;;3.72;;
23230;SDS011;11784;49.818;8.632;2022-11-20T13:07:21;9.60;;;3.83;;
23230;SDS011;11784;49.818;8.632;2022-11-20T13:09:49;7.93;;;3.78;;
23230;SDS011;11784;49.818;8.632;2022-11-20T13:12:18;7.18;;;3.50;;
23230;SDS011;11784;49.818;8.632;2022-11-20T13:14:52;7.75;;;3.22;;
23230;SDS011;11784;49.818;8.632;2022-11-20T13:20:24;10.45;;;4.18;;
23230;SDS011;11784;49.818;8.632;2022-11-20T13:22:53;8.68;;;4.32;;
23230;SDS011;11784;49.818;8.632;2022-11-20T13:25:26;7.80;;;3.42;;
23230;SDS011;11784;49.818;8.632;2022-11-20T13:28:00;6.93;;;3.25;;
23230;SDS011;11784;49.818;8.632;2022-11-20T13:30:50;6.90;;;2.97;;
23230;SDS011;11784;49.818;8.632;2022-11-20T13:33:36;10.45;;;4.00;;
23230;SDS011;11784;49.818;8.632;2022-11-20T13:36:06;10.98;;;4.10;;
23230;SDS011;11784;49.818;8.632;2022-11-20T13:38:49;8.70;;;3.90;;
23230;SDS011;11784;49.818;8.632;2022-11-20T13:41:30;10.40;;;3.28;;
23230;SDS011;11784;49.818;8.632;2022-11-20T13:44:10;10.45;;;2.85;;
23230;SDS011;11784;49.818;8.632;2022-11-20T13:46:43;10.80;;;3.60;;
23230;SDS011;11784;49.818;8.632;2022-11-20T13:51:46;10.27;;;3.40;;
23230;SDS011;11784;49.818;8.632;2022-11-20T13:57:26;6.80;;;3.45;;
23230;SDS011;11784;49.818;8.632;2022-11-20T14:00:12;7.75;;;3.60;;
23230;SDS011;11784;49.818;8.632;2022-11-20T14:02:38;7.25;;;3.40;;
23230;SDS011;11784;49.818;8.632;2022-11-20T14:05:05;9.35;;;3.25;;
23230;SDS011;11784;49.818;8.632;2022-11-20T14:07:39;6.50;;;3.63;;
23230;SDS011;11784;49.818;8.632;2022-11-20T14:10:18;6.18;;;2.58;;
23230;SDS011;11784;49.818;8.632;2022-11-20T14:12:46;5.07;;;2.55;;
23230;SDS011;11784;49.818;8.632;2022-11-20T14:15:24;6.32;;;2.33;;
23230;SDS011;11784;49.818;8.632;2022-11-20T14:17:51;8.70;;;3.55;;
23230;SDS011;11784;49.818;8.632;2022-11-20T14:20:17;7.60;;;2.63;;
23230;SDS011;11784;49.818;8.632;2022-11-20T14:22:48;6.47;;;2.65;;
23230;SDS011;11784;49.818;8.632;2022-11-20T14:27:49;5.20;;;2.75;;
23230;SDS011;11784;49.818;8.632;2022-11-20T14:30:21;10.65;;;3.22;;
23230;SDS011;11784;49.818;8.632;2022-11-20T14:32:53;4.22;;;2.08;;
23230;SDS011;11784;49.818;8.632;2022-11-20T14:35:28;5.30;;;2.67;;
23230;SDS011;11784;49.818;8.632;2022-11-20T14:37:57;5.32;;;2.72;;
23230;SDS011;11784;49.818;8.632;2022-11-20T14:40:33;6.28;;;2.78;;
23230;SDS011;11784;49.818;8.632;2022-11-20T14:43:24;8.20;;;4.20;;
23230;SDS011;11784;49.818;8.632;2022-11-20T14:45:57;5.65;;;2.60;;
23230;SDS011;11784;49.818;8.632;2022-11-20T14:48:26;6.70;;;2.65;;
23230;SDS011;11784;49.818;8.632;2022-11-20T14:50:56;6.95;;;3.85;;
23230;SDS011;11784;49.818;8.632;2022-11-20T14:53:22;5.55;;;2.60;;
23230;SDS011;11784;49.818;8.632;2022-11-20T14:55:54;6.97;;;2.47;;
23230;SDS011;11784;49.818;8.632;2022-11-20T14:58:22;4.13;;;1.80;;
23230;SDS011;11784;49.818;8.632;2022-11-20T15:03:22;6.57;;;2.50;;
23230;SDS011;11784;49.818;8.632;2022-11-20T15:05:48;6.38;;;2.03;;
23230;SDS011;11784;49.818;8.632;2022-11-20T15:08:15;4.85;;;2.10;;
23230;SDS011;11784;49.818;8.632;2022-11-20T15:10:45;3.03;;;1.83;;
23230;SDS011;11784;49.818;8.632;2022-11-20T15:13:16;4.45;;;2.33;;
23230;SDS011;11784;49.818;8.632;2022-11-20T15:15:56;3.78;;;1.98;;
23230;SDS011;11784;49.818;8.632;2022-11-20T15:20:51;3.13;;;1.90;;
23230;SDS011;11784;49.818;8.632;2022-11-20T15:23:19;6.75;;;2.03;;
23230;SDS011;11784;49.818;8.632;2022-11-20T15:25:45;4.93;;;2.45;;
23230;SDS011;11784;49.818;8.632;2022-11-20T15:30:42;3.63;;;1.87;;
23230;SDS011;11784;49.818;8.632;2022-11-20T15:33:09;2.88;;;1.48;;
23230;SDS011;11784;49.818;8.632;2022-11-20T15:35:35;5.57;;;1.90;;
23230;SDS011;11784;49.818;8.632;2022-11-20T15:38:01;4.55;;;2.47;;
23230;SDS011;11784;49.818;8.632;2022-11-20T15:40:26;3.63;;;1.70;;
23230;SDS011;11784;49.818;8.632;2022-11-20T15:42:51;3.65;;;2.17;;
23230;SDS011;11784;49.818;8.632;2022-11-20T15:45:43;5.15;;;2.42;;
23230;SDS011;11784;49.818;8.632;2022-11-20T15:50:54;4.78;;;2.08;;
23230;SDS011;11784;49.818;8.632;2022-11-20T15:53:24;6.47;;;2.20;;
23230;SDS011;11784;49.818;8.632;2022-11-20T15:55:50;3.50;;;1.80;;
23230;SDS011;11784;49.818;8.632;2022-11-20T15:58:15;3.72;;;1.67;;
23230;SDS011;11784;49.818;8.632;2022-11-20T16:00:42;2.60;;;1.50;;
23230;SDS011;11784;49.818;8.632;2022-11-20T16:03:11;3.15;;;2.15;;
23230;SDS011;11784;49.818;8.632;2022-11-20T16:05:37;7.03;;;2.22;;
23230;SDS011;11784;49.818;8.632;2022-11-20T16:08:03;8.68;;;2.35;;
23230;SDS011;11784;49.818;8.632;2022-11-20T16:10:29;7.07;;;2.50;;
23230;SDS011;11784;49.818;8.632;2022-11-20T16:12:55;4.53;;;2.05;;
23230;SDS011;11784;49.818;8.632;2022-11-20T16:15:38;7.57;;;2.00;;
23230;SDS011;11784;49.818;8.632;2022-11-20T16:18:10;10.40;;;2.38;;
23230;SDS011;11784;49.818;8.632;2022-11-20T16:20:38;5.60;;;2.55;;
23230;SDS011;11784;49.818;8.632;2022-11-20T16:23:03;4.50;;;2.15;;